Terminal Aerodrome Forecast
Issued by NWS

Home | Current Version | Previous Version | Text Only | Print | Product List | Glossary On
Versions: 1 2 3 4 5 6 7 8 9 10 11 12 13 14 15 16 17 18 19 20 21 22 23 24 25 26 27 28 29 30 31 32
000
FTUS46 KLOX 230800 AAA
TAFLAX
TAF AMD
KLAX 230858Z 2309/2412 VRB05KT P6SM OVC013
     FM231700 23006KT P6SM OVC015
     FM232000 26013KT P6SM SCT020
     FM240300 25007KT P6SM BKN012
     FM240500 VRB05KT P6SM OVC010=

USA.gov is the U.S. government's official web portal to all federal, state and local government web resources and services.